createdAt,value
2019-05-23T00:00:43.724Z,7.56
2019-05-23T00:01:43.707Z,7.58
2019-05-23T00:02:43.750Z,7.56
2019-05-23T00:03:44.611Z,7.58
2019-05-23T00:04:43.681Z,7.56
2019-05-23T00:05:43.776Z,7.53
2019-05-23T00:06:43.651Z,7.56
2019-05-23T00:07:43.640Z,7.54
2019-05-23T00:08:43.638Z,7.53
2019-05-23T00:09:43.623Z,7.53
2019-05-23T00:10:43.652Z,7.45
2019-05-23T00:11:43.671Z,7.50
2019-05-23T00:12:43.589Z,7.36
2019-05-23T00:13:43.585Z,7.42
2019-05-23T00:14:43.567Z,7.42
2019-05-23T00:15:43.566Z,7.40
2019-05-23T00:16:43.586Z,7.32
2019-05-23T00:17:43.554Z,7.28
2019-05-23T00:18:43.522Z,7.35
2019-05-23T00:19:43.513Z,7.28
2019-05-23T00:20:43.504Z,7.24
2019-05-23T00:21:43.538Z,7.17
2019-05-23T00:22:43.487Z,7.18
2019-05-23T00:23:43.498Z,7.24
2019-05-23T00:24:43.519Z,7.23
2019-05-23T00:25:43.453Z,7.20
2019-05-23T00:26:43.488Z,7.20
2019-05-23T00:27:43.444Z,7.11
2019-05-23T00:28:43.423Z,7.07
2019-05-23T00:29:43.486Z,6.99
2019-05-23T00:30:43.393Z,7.00
2019-05-23T00:31:43.400Z,7.00
2019-05-23T00:32:43.383Z,6.88
2019-05-23T00:33:43.364Z,6.93
2019-05-23T00:34:43.391Z,6.96
2019-05-23T00:35:43.360Z,6.93
2019-05-23T00:36:43.330Z,7.03
2019-05-23T00:37:43.322Z,6.85
2019-05-23T00:38:43.356Z,6.82
2019-05-23T00:39:43.343Z,6.81
2019-05-23T00:40:43.291Z,6.88
2019-05-23T00:41:43.350Z,6.87
2019-05-23T00:42:43.274Z,6.87
2019-05-23T00:43:43.257Z,6.87
2019-05-23T00:44:43.256Z,6.82
2019-05-23T00:45:43.287Z,6.85
2019-05-23T00:46:43.232Z,6.82
2019-05-23T00:47:43.225Z,6.81
2019-05-23T00:48:43.208Z,6.79
2019-05-23T00:49:43.196Z,6.78
2019-05-23T00:50:43.236Z,6.79
2019-05-23T00:51:43.175Z,6.79
2019-05-23T00:52:43.167Z,6.79
2019-05-23T00:53:43.167Z,6.78
2019-05-23T00:54:43.202Z,6.77
2019-05-23T00:55:43.133Z,6.67
2019-05-23T00:56:43.135Z,6.66
2019-05-23T00:57:43.116Z,6.59
2019-05-23T00:58:43.107Z,6.66
2019-05-23T00:59:43.176Z,6.60
2019-05-23T01:00:43.087Z,6.60
2019-05-23T01:01:43.118Z,6.56
2019-05-23T01:02:43.065Z,6.60
2019-05-23T01:03:43.053Z,6.49
2019-05-23T01:04:43.089Z,6.56
2019-05-23T01:05:43.097Z,6.54
2019-05-23T01:06:43.045Z,6.49
2019-05-23T01:07:43.007Z,6.56
2019-05-23T01:08:43.042Z,6.54
2019-05-23T01:09:43.027Z,6.57
2019-05-23T01:10:42.973Z,6.59
2019-05-23T01:11:42.986Z,6.51
2019-05-23T01:12:42.957Z,6.56
2019-05-23T01:13:42.948Z,6.56
2019-05-23T01:14:42.983Z,6.54
2019-05-23T01:15:42.962Z,6.52
2019-05-23T01:16:42.910Z,6.45
2019-05-23T01:17:42.932Z,6.46
2019-05-23T01:18:42.962Z,6.35
2019-05-23T01:19:42.894Z,6.35
2019-05-23T01:20:42.916Z,6.38
2019-05-23T01:21:42.913Z,6.30
2019-05-23T01:22:42.849Z,6.22
2019-05-23T01:23:42.867Z,6.19
2019-05-23T01:24:42.828Z,6.16
2019-05-23T01:25:42.864Z,6.12
2019-05-23T01:26:42.811Z,6.14
2019-05-23T01:27:42.798Z,6.11
2019-05-23T01:28:42.793Z,6.14
2019-05-23T01:29:42.794Z,6.11
2019-05-23T01:30:42.813Z,6.17
2019-05-23T01:31:42.805Z,6.14
2019-05-23T01:32:42.747Z,6.09
2019-05-23T01:33:42.732Z,6.14
2019-05-23T01:34:42.724Z,6.11
2019-05-23T01:35:42.780Z,6.16
2019-05-23T01:36:42.709Z,6.19
2019-05-23T01:37:42.697Z,6.09
2019-05-23T01:38:42.682Z,6.08
2019-05-23T01:39:42.718Z,6.08
2019-05-23T01:40:42.715Z,6.11
2019-05-23T01:41:42.660Z,6.02
2019-05-23T01:42:42.638Z,6.01
2019-05-23T01:43:42.633Z,5.97
2019-05-23T01:44:42.629Z,6.04
2019-05-23T01:45:42.653Z,5.91
2019-05-23T01:46:42.603Z,5.93
2019-05-23T01:47:42.614Z,5.94
2019-05-23T01:48:42.632Z,6.01
2019-05-23T01:49:42.571Z,5.99
2019-05-23T01:50:42.597Z,6.07
2019-05-23T01:51:42.542Z,5.97
2019-05-23T01:52:42.538Z,6.02
2019-05-23T01:53:42.596Z,5.98
2019-05-23T01:54:42.515Z,5.99
2019-05-23T01:55:42.501Z,6.04
2019-05-23T01:56:42.549Z,6.04
2019-05-23T01:57:42.487Z,5.97
2019-05-23T01:58:42.520Z,5.97
2019-05-23T01:59:42.484Z,5.94
2019-05-23T02:00:42.454Z,5.97
2019-05-23T02:01:42.440Z,5.99
2019-05-23T02:02:42.429Z,5.97
2019-05-23T02:03:42.490Z,5.90
2019-05-23T02:04:42.441Z,5.90
2019-05-23T02:05:42.397Z,5.98
2019-05-23T02:06:42.415Z,5.93
2019-05-23T02:07:42.383Z,5.87
2019-05-23T02:08:42.429Z,5.82
2019-05-23T02:09:42.354Z,5.83
2019-05-23T02:10:42.355Z,5.87
2019-05-23T02:11:42.345Z,5.83
2019-05-23T02:12:42.332Z,5.82
2019-05-23T02:13:42.360Z,5.84
2019-05-23T02:14:42.357Z,5.79
2019-05-23T02:15:42.290Z,5.75
2019-05-23T02:16:42.313Z,5.71
2019-05-23T02:17:42.328Z,5.66
2019-05-23T02:18:42.268Z,5.71
2019-05-23T02:19:42.298Z,5.75
2019-05-23T02:20:42.242Z,5.71
2019-05-23T02:21:42.240Z,5.71
2019-05-23T02:22:42.246Z,5.71
2019-05-23T02:23:42.277Z,5.62
2019-05-23T02:24:42.251Z,5.65
2019-05-23T02:25:42.188Z,5.65
2019-05-23T02:26:42.198Z,5.68
2019-05-23T02:27:42.171Z,5.53
2019-05-23T02:28:42.231Z,5.62
2019-05-23T02:29:42.150Z,5.54
2019-05-23T02:30:42.149Z,5.71
2019-05-23T02:31:42.136Z,5.59
2019-05-23T02:32:42.117Z,5.59
2019-05-23T02:33:42.153Z,5.54
2019-05-23T02:34:42.135Z,5.51
2019-05-23T02:35:42.087Z,5.56
2019-05-23T02:36:42.084Z,5.54
2019-05-23T02:37:42.067Z,5.54
2019-05-23T02:38:42.099Z,5.59
2019-05-23T02:39:42.052Z,5.50
2019-05-23T02:40:42.062Z,5.57
2019-05-23T02:41:42.020Z,5.59
2019-05-23T02:42:42.056Z,5.47
2019-05-23T02:43:42.026Z,5.44
2019-05-23T02:44:42.002Z,5.39
2019-05-23T02:45:41.983Z,5.46
2019-05-23T02:46:42.003Z,5.41
2019-05-23T02:47:42.009Z,5.48
2019-05-23T02:48:41.964Z,5.43
2019-05-23T02:49:41.955Z,5.35
2019-05-23T02:50:41.937Z,5.44
2019-05-23T02:51:41.926Z,5.41
2019-05-23T02:52:41.986Z,5.44
2019-05-23T02:53:41.903Z,5.44
2019-05-23T02:54:41.889Z,5.36
2019-05-23T02:55:41.882Z,5.41
2019-05-23T02:56:41.911Z,5.41
2019-05-23T02:57:41.868Z,5.35
2019-05-23T02:58:41.876Z,5.39
2019-05-23T02:59:41.847Z,5.35
2019-05-23T03:00:53.526Z,5.36
2019-05-23T03:01:42.890Z,5.35
2019-05-23T03:02:41.817Z,5.30
2019-05-23T03:03:41.862Z,5.33
2019-05-23T03:04:41.843Z,5.26
2019-05-23T03:05:41.806Z,5.28
2019-05-23T03:06:41.767Z,5.17
2019-05-23T03:07:41.755Z,5.17
2019-05-23T03:08:41.828Z,5.17
2019-05-23T03:09:41.747Z,5.18
2019-05-23T03:10:41.821Z,5.18
2019-05-23T03:11:41.718Z,5.18
2019-05-23T03:12:41.732Z,5.14
2019-05-23T03:13:41.779Z,5.23
2019-05-23T03:14:41.694Z,5.17
2019-05-23T03:15:41.716Z,5.21
2019-05-23T03:16:41.657Z,5.11
2019-05-23T03:17:41.688Z,5.11
2019-05-23T03:18:41.687Z,5.11
2019-05-23T03:19:41.626Z,5.10
2019-05-23T03:20:41.625Z,5.14
2019-05-23T03:21:41.650Z,5.15
2019-05-23T03:22:41.601Z,5.17
2019-05-23T03:23:41.612Z,5.12
2019-05-23T03:24:41.578Z,5.08
2019-05-23T03:25:41.566Z,5.15
2019-05-23T03:26:41.592Z,5.11
2019-05-23T03:27:41.556Z,5.20
2019-05-23T03:28:41.531Z,5.21
2019-05-23T03:29:41.589Z,5.21
2019-05-23T03:30:41.613Z,5.20
2019-05-23T03:31:41.504Z,5.23
2019-05-23T03:32:41.492Z,5.20
2019-05-23T03:33:41.529Z,5.20
2019-05-23T03:34:41.472Z,5.30
2019-05-23T03:35:41.468Z,5.23
2019-05-23T03:36:41.559Z,5.21
2019-05-23T03:37:41.444Z,5.23
2019-05-23T03:38:41.478Z,5.20
2019-05-23T03:39:41.421Z,5.18
2019-05-23T03:40:41.418Z,5.17
2019-05-23T03:41:41.421Z,5.14
2019-05-23T03:42:41.436Z,5.10
2019-05-23T03:43:41.414Z,5.11
2019-05-23T03:44:41.367Z,5.05
2019-05-23T03:45:41.378Z,5.10
2019-05-23T03:46:41.352Z,5.20
2019-05-23T03:47:41.330Z,5.07
2019-05-23T03:48:41.432Z,5.18
2019-05-23T03:49:41.313Z,5.20
2019-05-23T03:50:41.309Z,5.21
2019-05-23T03:51:41.302Z,5.23
2019-05-23T03:52:41.289Z,5.28
2019-05-23T03:53:41.318Z,5.17
2019-05-23T03:54:41.350Z,5.35
2019-05-23T03:55:41.252Z,5.30
2019-05-23T03:56:41.239Z,5.30
2019-05-23T03:57:41.237Z,5.29
2019-05-23T03:58:41.225Z,5.33
2019-05-23T03:59:41.353Z,5.35
2019-05-23T04:00:41.207Z,5.39
2019-05-23T04:01:48.285Z,5.39
2019-05-23T04:02:42.189Z,5.26
2019-05-23T04:03:41.218Z,5.41
2019-05-23T04:04:41.160Z,5.43
2019-05-23T04:05:41.151Z,5.43
2019-05-23T04:06:41.190Z,5.43
2019-05-23T04:07:41.147Z,5.44
2019-05-23T04:08:41.116Z,5.46
2019-05-23T04:09:41.124Z,5.46
2019-05-23T04:10:41.108Z,5.54
2019-05-23T04:11:41.136Z,5.54
2019-05-23T04:12:41.080Z,5.54
2019-05-23T04:13:41.098Z,5.62
2019-05-23T04:14:41.052Z,5.51
2019-05-23T04:15:41.046Z,5.64
2019-05-23T04:16:41.033Z,5.64
2019-05-23T04:17:41.076Z,5.68
2019-05-23T04:18:41.021Z,5.69
2019-05-23T04:19:41.038Z,5.72
2019-05-23T04:20:41.001Z,5.69
2019-05-23T04:21:40.983Z,5.75
2019-05-23T04:22:41.130Z,5.84
2019-05-23T04:23:40.964Z,5.87
2019-05-23T04:24:40.951Z,5.93
2019-05-23T04:25:40.985Z,5.98
2019-05-23T04:26:41.011Z,5.99
2019-05-23T04:27:40.918Z,6.02
2019-05-23T04:28:40.908Z,6.04
2019-05-23T04:29:40.942Z,6.01
2019-05-23T04:30:40.888Z,6.05
2019-05-23T04:31:40.881Z,5.99
2019-05-23T04:32:40.871Z,6.07
2019-05-23T04:33:40.885Z,6.07
2019-05-23T04:34:40.918Z,5.99
2019-05-23T04:35:40.837Z,6.07
2019-05-23T04:36:40.828Z,6.04
2019-05-23T04:37:40.840Z,6.05
2019-05-23T04:38:40.835Z,6.14
2019-05-23T04:39:40.842Z,6.14
2019-05-23T04:40:40.837Z,6.08
2019-05-23T04:41:40.808Z,6.11
2019-05-23T04:42:40.806Z,6.14
2019-05-23T04:43:40.761Z,6.09
2019-05-23T04:44:43.968Z,6.19
2019-05-23T04:45:40.768Z,6.17
2019-05-23T04:46:40.718Z,6.14
2019-05-23T04:47:40.774Z,6.09
2019-05-23T04:48:40.701Z,6.14
2019-05-23T04:49:40.732Z,6.17
2019-05-23T04:50:41.589Z,6.27
2019-05-23T04:51:40.719Z,6.35
2019-05-23T04:52:40.696Z,6.45
2019-05-23T04:53:40.644Z,6.62
2019-05-23T04:54:40.647Z,6.72
2019-05-23T04:55:40.659Z,6.97
2019-05-23T04:56:40.665Z,7.10
2019-05-23T04:57:40.603Z,7.18
2019-05-23T04:58:40.597Z,7.36
2019-05-23T04:59:40.586Z,7.51
2019-05-23T05:00:40.638Z,7.51
2019-05-23T05:01:40.600Z,7.70
2019-05-23T05:02:40.544Z,7.90
2019-05-23T05:03:40.551Z,8.03
2019-05-23T05:04:40.601Z,8.10
2019-05-23T05:05:40.852Z,8.28
2019-05-23T05:06:40.512Z,8.33
2019-05-23T05:07:40.566Z,8.41
2019-05-23T05:08:40.494Z,8.42
2019-05-23T05:09:40.477Z,8.53
2019-05-23T05:10:40.462Z,8.55
2019-05-23T05:11:40.460Z,8.64
2019-05-23T05:12:40.489Z,8.67
2019-05-23T05:13:40.546Z,8.73
2019-05-23T05:14:40.434Z,8.79
2019-05-23T05:15:40.415Z,8.76
2019-05-23T05:16:40.402Z,8.85
2019-05-23T05:17:40.436Z,8.94
2019-05-23T05:18:40.381Z,9.03
2019-05-23T05:19:40.419Z,8.99
2019-05-23T05:20:40.373Z,9.11
2019-05-23T05:21:40.354Z,9.13
2019-05-23T05:22:40.393Z,9.25
2019-05-23T05:23:40.330Z,9.26
2019-05-23T05:24:40.527Z,9.29
2019-05-23T05:25:40.385Z,9.43
2019-05-23T05:26:40.350Z,9.46
2019-05-23T05:27:40.304Z,9.56
2019-05-23T05:28:40.274Z,9.55
2019-05-23T05:29:40.321Z,9.66
2019-05-23T05:30:40.307Z,9.69
2019-05-23T05:31:40.299Z,9.77
2019-05-23T05:32:44.870Z,9.92
2019-05-23T05:33:41.221Z,9.92
2019-05-23T05:34:40.251Z,9.95
2019-05-23T05:35:40.199Z,10.04
2019-05-23T05:36:40.189Z,10.10
2019-05-23T05:37:40.208Z,10.17
2019-05-23T05:38:40.169Z,10.19
2019-05-23T05:39:40.187Z,10.31
2019-05-23T05:40:40.225Z,10.44
2019-05-23T05:41:40.132Z,10.48
2019-05-23T05:42:40.185Z,10.54
2019-05-23T05:43:40.150Z,10.61
2019-05-23T05:44:40.165Z,10.69
2019-05-23T05:45:40.104Z,10.68
2019-05-23T05:46:40.261Z,10.76
2019-05-23T05:47:40.065Z,10.81
2019-05-23T05:48:40.082Z,10.86
2019-05-23T05:49:42.303Z,10.92
2019-05-23T05:50:40.040Z,10.96
2019-05-23T05:51:40.070Z,10.96
2019-05-23T05:52:40.017Z,10.97
2019-05-23T05:53:40.045Z,11.08
2019-05-23T05:54:39.993Z,11.10
2019-05-23T05:55:40.047Z,11.11
2019-05-23T05:56:39.975Z,11.15
2019-05-23T05:57:39.970Z,11.19
2019-05-23T05:58:40.004Z,11.23
2019-05-23T05:59:39.973Z,11.29
2019-05-23T06:00:39.936Z,11.33
2019-05-23T06:01:39.919Z,11.43
2019-05-23T06:02:39.909Z,11.40
2019-05-23T06:03:39.945Z,11.41
2019-05-23T06:04:39.933Z,11.47
2019-05-23T06:05:39.921Z,11.37
2019-05-23T06:06:39.866Z,11.57
2019-05-23T06:07:39.902Z,11.57
2019-05-23T06:08:39.850Z,11.60
2019-05-23T06:09:39.838Z,11.62
2019-05-23T06:10:39.863Z,11.78
2019-05-23T06:11:39.865Z,11.75
2019-05-23T06:12:39.803Z,11.78
2019-05-23T06:13:39.791Z,11.87
2019-05-23T06:14:39.797Z,11.87
2019-05-23T06:15:39.808Z,11.87
2019-05-23T06:16:39.794Z,11.90
2019-05-23T06:17:39.774Z,11.90
2019-05-23T06:18:39.740Z,11.99
2019-05-23T06:19:39.774Z,12.02
2019-05-23T06:20:40.938Z,12.09
2019-05-23T06:21:39.759Z,12.07
2019-05-23T06:22:39.697Z,12.12
2019-05-23T06:23:39.692Z,12.27
2019-05-23T06:24:47.883Z,12.35
2019-05-23T06:25:40.663Z,12.29
2019-05-23T06:26:39.718Z,12.45
2019-05-23T06:27:39.647Z,12.55
2019-05-23T06:28:39.631Z,12.65
2019-05-23T06:29:39.626Z,12.68
2019-05-23T06:30:39.708Z,12.79
2019-05-23T06:31:39.677Z,12.78
2019-05-23T06:32:39.593Z,12.75
2019-05-23T06:33:39.625Z,12.86
2019-05-23T06:34:39.568Z,12.94
2019-05-23T06:35:39.564Z,12.97
2019-05-23T06:36:39.573Z,12.98
2019-05-23T06:37:39.534Z,13.01
2019-05-23T06:38:39.571Z,13.05
2019-05-23T06:39:39.534Z,13.13
2019-05-23T06:40:39.693Z,13.22
2019-05-23T06:41:39.530Z,13.33
2019-05-23T06:42:39.491Z,13.33
2019-05-23T06:43:39.552Z,13.33
2019-05-23T06:44:39.476Z,13.46
2019-05-23T06:45:39.453Z,13.41
2019-05-23T06:46:39.494Z,13.47
2019-05-23T06:47:39.443Z,13.53
2019-05-23T06:48:39.465Z,13.59
2019-05-23T06:49:39.413Z,13.62
2019-05-23T06:50:39.398Z,13.63
2019-05-23T06:51:39.489Z,13.71
2019-05-23T06:52:39.376Z,13.70
2019-05-23T06:53:39.367Z,13.87
2019-05-23T06:54:39.358Z,13.81
2019-05-23T06:55:39.350Z,13.85
2019-05-23T06:56:39.396Z,13.90
2019-05-23T06:57:39.328Z,13.86
2019-05-23T06:58:39.315Z,13.86
2019-05-23T06:59:39.356Z,13.85
2019-05-23T07:00:39.293Z,13.99
2019-05-23T07:01:39.284Z,13.96
2019-05-23T07:02:39.330Z,14.04
2019-05-23T07:03:43.151Z,14.04
2019-05-23T07:04:39.298Z,14.00
2019-05-23T07:05:39.242Z,14.07
2019-05-23T07:06:39.284Z,14.11
2019-05-23T07:07:39.222Z,14.14
2019-05-23T07:08:39.205Z,14.08
2019-05-23T07:09:39.218Z,14.15
2019-05-23T07:10:39.197Z,14.26
2019-05-23T07:11:39.233Z,14.15
2019-05-23T07:12:39.195Z,14.35
2019-05-23T07:13:39.170Z,14.33
2019-05-23T07:14:39.158Z,14.37
2019-05-23T07:15:39.210Z,14.47
2019-05-23T07:16:39.184Z,14.43
2019-05-23T07:17:39.172Z,14.48
2019-05-23T07:18:39.110Z,14.43
2019-05-23T07:19:40.102Z,14.51
2019-05-23T07:20:39.142Z,14.50
2019-05-23T07:21:39.088Z,14.63
2019-05-23T07:22:39.085Z,14.59
2019-05-23T07:23:39.121Z,14.59
2019-05-23T07:24:55.181Z,14.70
2019-05-23T07:25:40.192Z,14.69
2019-05-23T07:26:39.050Z,14.73
2019-05-23T07:27:39.065Z,14.72
2019-05-23T07:28:39.041Z,14.66
2019-05-23T07:29:39.054Z,14.66
2019-05-23T07:30:38.971Z,14.69
2019-05-23T07:31:38.956Z,14.62
2019-05-23T07:32:38.954Z,14.69
2019-05-23T07:33:38.984Z,14.69
2019-05-23T07:34:38.929Z,14.82
2019-05-23T07:35:38.946Z,14.88
2019-05-23T07:36:38.951Z,14.81
2019-05-23T07:37:39.009Z,14.84
2019-05-23T07:38:38.908Z,14.91
2019-05-23T07:39:38.872Z,14.99
2019-05-23T07:40:38.913Z,15.02
2019-05-23T07:41:38.894Z,15.00
2019-05-23T07:42:38.844Z,14.99
2019-05-23T07:43:38.841Z,14.94
2019-05-23T07:44:47.892Z,15.00
2019-05-23T07:45:40.100Z,14.99
2019-05-23T07:46:38.836Z,15.06
2019-05-23T07:47:40.244Z,15.10
2019-05-23T07:48:38.781Z,15.24
2019-05-23T07:49:38.788Z,15.22
2019-05-23T07:50:38.772Z,15.29
2019-05-23T07:51:38.805Z,15.31
2019-05-23T07:52:38.764Z,15.37
2019-05-23T07:53:38.736Z,15.44
2019-05-23T07:54:38.716Z,15.40
2019-05-23T07:55:38.731Z,15.44
2019-05-23T07:56:38.748Z,15.36
2019-05-23T07:57:38.695Z,15.47
2019-05-23T07:58:38.738Z,15.49
2019-05-23T07:59:38.673Z,15.62
2019-05-23T08:00:38.661Z,15.55
2019-05-23T08:01:38.735Z,15.59
2019-05-23T08:02:38.677Z,15.59
2019-05-23T08:03:38.624Z,15.64
2019-05-23T08:04:38.601Z,15.67
2019-05-23T08:05:38.597Z,15.70
2019-05-23T08:06:38.672Z,15.79
2019-05-23T08:07:38.574Z,15.73
2019-05-23T08:08:38.561Z,15.90
2019-05-23T08:09:38.573Z,15.94
2019-05-23T08:10:38.555Z,15.90
2019-05-23T08:11:38.585Z,16.02
2019-05-23T08:12:38.517Z,16.01
2019-05-23T08:13:38.524Z,16.08
2019-05-23T08:14:38.509Z,16.02
2019-05-23T08:15:38.714Z,16.01
2019-05-23T08:16:38.536Z,16.01
2019-05-23T08:17:38.613Z,16.04
2019-05-23T08:18:38.497Z,16.01
2019-05-23T08:19:48.942Z,16.09
2019-05-23T08:20:39.453Z,16.17
2019-05-23T08:21:38.535Z,16.15
2019-05-23T08:22:38.415Z,16.24
2019-05-23T08:23:38.416Z,16.33
2019-05-23T08:24:38.420Z,16.32
2019-05-23T08:25:38.381Z,16.41
2019-05-23T08:26:38.432Z,16.38
2019-05-23T08:27:38.402Z,16.46
2019-05-23T08:28:56.302Z,16.51
2019-05-23T08:29:39.340Z,16.50
2019-05-23T08:30:38.332Z,16.49
2019-05-23T08:31:38.374Z,16.49
2019-05-23T08:32:38.420Z,16.57
2019-05-23T08:33:38.300Z,16.64
2019-05-23T08:34:42.194Z,16.58
2019-05-23T08:35:38.274Z,16.60
2019-05-23T08:36:38.259Z,16.68
2019-05-23T08:37:38.300Z,16.84
2019-05-23T08:38:38.281Z,16.78
2019-05-23T08:39:38.232Z,16.71
2019-05-23T08:40:38.270Z,16.76
2019-05-23T08:41:38.211Z,16.83
2019-05-23T08:42:38.196Z,16.86
2019-05-23T08:43:38.195Z,16.84
2019-05-23T08:44:38.195Z,16.91
2019-05-23T08:45:38.225Z,16.79
2019-05-23T08:46:38.163Z,16.89
2019-05-23T08:47:38.222Z,16.83
2019-05-23T08:48:38.182Z,16.87
2019-05-23T08:49:38.124Z,16.86
2019-05-23T08:50:39.105Z,16.83
2019-05-23T08:51:38.113Z,16.97
2019-05-23T08:52:38.141Z,16.94
2019-05-23T08:53:38.124Z,17.02
2019-05-23T08:54:38.097Z,17.02
2019-05-23T08:55:38.058Z,17.15
2019-05-23T08:56:38.098Z,17.24
2019-05-23T08:57:38.038Z,17.27
2019-05-23T08:58:38.135Z,17.27
2019-05-23T08:59:38.035Z,17.20
2019-05-23T09:00:38.193Z,17.22
2019-05-23T09:01:38.038Z,17.31
2019-05-23T09:02:37.988Z,17.27
2019-05-23T09:03:38.017Z,17.30
2019-05-23T09:04:37.967Z,17.48
2019-05-23T09:05:37.966Z,17.59
2019-05-23T09:06:37.972Z,17.59
2019-05-23T09:07:37.951Z,17.63
2019-05-23T09:08:38.019Z,17.59
2019-05-23T09:09:37.934Z,17.71
2019-05-23T09:10:37.919Z,17.60
2019-05-23T09:11:37.896Z,17.63
2019-05-23T09:12:37.916Z,17.64
2019-05-23T09:13:37.927Z,17.76
2019-05-23T09:14:38.010Z,17.76
2019-05-23T09:15:37.946Z,17.68
2019-05-23T09:16:37.843Z,17.63
2019-05-23T09:17:52.464Z,17.64
2019-05-23T09:18:38.857Z,17.68
2019-05-23T09:19:37.816Z,17.70
2019-05-23T09:20:37.825Z,17.67
2019-05-23T09:21:37.859Z,17.59
2019-05-23T09:22:37.779Z,17.72
2019-05-23T09:23:37.789Z,17.72
2019-05-23T09:24:37.759Z,17.67
2019-05-23T09:25:37.744Z,17.80
2019-05-23T09:26:37.777Z,17.76
2019-05-23T09:27:37.737Z,17.70
2019-05-23T09:28:37.713Z,17.78
2019-05-23T09:29:37.698Z,17.85
2019-05-23T09:30:37.690Z,17.85
2019-05-23T09:31:37.722Z,17.85
2019-05-23T09:32:37.672Z,17.87
2019-05-23T09:33:37.735Z,17.95
2019-05-23T09:34:37.649Z,17.90
2019-05-23T09:35:37.649Z,18.00
2019-05-23T09:36:37.628Z,18.01
2019-05-23T09:37:37.664Z,18.04
2019-05-23T09:38:37.617Z,18.16
2019-05-23T09:39:37.599Z,18.26
2019-05-23T09:40:37.682Z,18.23
2019-05-23T09:41:37.628Z,18.26
2019-05-23T09:42:37.576Z,18.33
2019-05-23T09:43:38.115Z,18.22
2019-05-23T09:44:37.599Z,18.22
2019-05-23T09:45:37.535Z,18.18
2019-05-23T09:46:37.555Z,18.11
2019-05-23T09:47:37.557Z,18.22
2019-05-23T09:48:37.614Z,18.22
2019-05-23T09:49:37.526Z,18.29
2019-05-23T09:50:37.574Z,18.31
2019-05-23T09:51:37.657Z,18.31
2019-05-23T09:52:37.463Z,18.40
2019-05-23T09:53:37.502Z,18.49
2019-05-23T09:54:37.446Z,18.47
2019-05-23T09:55:37.427Z,18.56
2019-05-23T09:56:37.469Z,18.68
2019-05-23T09:57:37.657Z,18.59
2019-05-23T09:58:37.411Z,18.62
2019-05-23T09:59:37.415Z,18.74
2019-05-23T10:00:37.379Z,18.70
2019-05-23T10:01:37.417Z,18.86
2019-05-23T10:02:37.482Z,18.83
2019-05-23T10:03:37.351Z,18.74
2019-05-23T10:04:37.380Z,18.78
2019-05-23T10:05:43.479Z,18.81
2019-05-23T10:06:38.311Z,18.86
2019-05-23T10:07:37.301Z,18.99
2019-05-23T10:08:37.295Z,18.98
2019-05-23T10:09:37.344Z,19.00
2019-05-23T10:10:37.272Z,18.95
2019-05-23T10:11:37.284Z,19.02
2019-05-23T10:12:37.248Z,19.07
2019-05-23T10:13:39.484Z,19.14
2019-05-23T10:14:37.305Z,19.21
2019-05-23T10:15:37.214Z,19.24
2019-05-23T10:16:37.227Z,19.24
2019-05-23T10:17:37.210Z,19.02
2019-05-23T10:18:37.269Z,18.93
2019-05-23T10:19:37.170Z,18.96
2019-05-23T10:20:37.188Z,18.99
2019-05-23T10:21:37.190Z,19.11
2019-05-23T10:22:37.141Z,19.19
2019-05-23T10:23:37.174Z,19.24
2019-05-23T10:24:37.124Z,19.15
2019-05-23T10:25:37.184Z,19.26
2019-05-23T10:26:37.091Z,19.41
2019-05-23T10:27:37.080Z,19.47
2019-05-23T10:28:37.079Z,19.58
2019-05-23T10:29:37.073Z,19.59
2019-05-23T10:30:37.097Z,19.64
2019-05-23T10:31:37.077Z,19.77
2019-05-23T10:32:37.045Z,19.66
2019-05-23T10:33:37.045Z,19.73
2019-05-23T10:34:37.053Z,19.95
2019-05-23T10:35:37.012Z,19.95
2019-05-23T10:36:37.055Z,19.96
2019-05-23T10:37:36.986Z,19.84
2019-05-23T10:38:37.014Z,19.82
2019-05-23T10:39:37.052Z,19.77
2019-05-23T10:40:36.950Z,19.92
2019-05-23T10:41:37.014Z,20.04
2019-05-23T10:42:36.927Z,20.14
2019-05-23T10:43:36.959Z,20.09
2019-05-23T10:44:36.927Z,19.85
2019-05-23T10:45:36.895Z,19.70
2019-05-23T10:46:36.893Z,19.71
2019-05-23T10:47:37.133Z,19.69
2019-05-23T10:48:36.862Z,19.70
2019-05-23T10:49:36.865Z,19.48
2019-05-23T10:50:44.742Z,19.40
2019-05-23T10:51:37.873Z,19.33
2019-05-23T10:52:36.883Z,19.29
2019-05-23T10:53:36.884Z,19.31
2019-05-23T10:54:36.835Z,19.52
2019-05-23T10:55:36.803Z,19.70
2019-05-23T10:56:36.811Z,19.96
2019-05-23T10:57:36.781Z,20.11
2019-05-23T10:58:36.833Z,20.39
2019-05-23T10:59:36.770Z,20.55
2019-05-23T11:00:36.731Z,20.69
2019-05-23T11:01:36.730Z,20.92
2019-05-23T11:02:36.730Z,21.09
2019-05-23T11:03:36.759Z,20.92
2019-05-23T11:04:36.770Z,21.09
2019-05-23T11:05:36.725Z,21.25
2019-05-23T11:06:36.673Z,21.39
2019-05-23T11:07:36.691Z,21.29
2019-05-23T11:08:36.721Z,21.25
2019-05-23T11:09:38.519Z,21.72
2019-05-23T11:10:36.636Z,22.29
2019-05-23T11:11:36.652Z,22.80
2019-05-23T11:12:36.622Z,23.43
2019-05-23T11:13:36.655Z,24.01
2019-05-23T11:14:36.803Z,24.65
2019-05-23T11:15:36.597Z,25.21
2019-05-23T11:16:36.618Z,25.58
2019-05-23T11:17:36.577Z,25.58
2019-05-23T11:18:36.609Z,25.72
2019-05-23T11:19:36.577Z,25.62
2019-05-23T11:20:36.580Z,25.36
2019-05-23T11:21:36.563Z,25.51
2019-05-23T11:22:36.563Z,25.48
2019-05-23T11:23:36.516Z,25.44
2019-05-23T11:24:36.506Z,25.21
2019-05-23T11:25:36.561Z,25.31
2019-05-23T11:26:36.518Z,25.60
2019-05-23T11:27:36.570Z,25.85
2019-05-23T11:28:36.480Z,26.33
2019-05-23T11:29:36.478Z,26.80
2019-05-23T11:30:36.438Z,26.68
2019-05-23T11:31:36.460Z,27.17
2019-05-23T11:32:36.459Z,27.58
2019-05-23T11:33:36.486Z,27.71
2019-05-23T11:34:36.435Z,28.00
2019-05-23T11:35:36.386Z,27.52
2019-05-23T11:36:37.115Z,27.39
2019-05-23T11:37:36.369Z,26.93
2019-05-23T11:38:36.411Z,26.66
2019-05-23T11:39:42.219Z,26.47
2019-05-23T11:40:37.362Z,25.65
2019-05-23T11:41:36.371Z,25.10
2019-05-23T11:42:36.339Z,24.29
2019-05-23T11:43:36.314Z,24.28
2019-05-23T11:44:36.325Z,24.17
2019-05-23T11:45:45.142Z,23.78
2019-05-23T11:46:37.405Z,23.56
2019-05-23T11:47:36.280Z,23.43
2019-05-23T11:48:36.249Z,22.88
2019-05-23T11:49:36.252Z,22.70
2019-05-23T11:50:36.223Z,23.28
2019-05-23T11:51:36.348Z,23.44
2019-05-23T11:52:36.213Z,23.55
2019-05-23T11:53:36.238Z,23.88
2019-05-23T11:54:36.182Z,24.57
2019-05-23T11:55:36.222Z,25.38
2019-05-23T11:56:36.529Z,25.91
2019-05-23T11:57:37.829Z,26.22
2019-05-23T11:58:36.163Z,26.19
2019-05-23T11:59:36.126Z,25.68
2019-05-23T12:00:36.172Z,25.63
2019-05-23T12:01:36.171Z,25.87
2019-05-23T12:02:36.103Z,25.38
2019-05-23T12:03:36.105Z,24.68
2019-05-23T12:04:36.089Z,24.14
2019-05-23T12:05:36.149Z,23.95
2019-05-23T12:06:53.637Z,23.99
2019-05-23T12:07:37.089Z,24.13
2019-05-23T12:08:36.059Z,24.55
2019-05-23T12:09:36.029Z,25.22
2019-05-23T12:10:36.115Z,25.60
2019-05-23T12:11:41.912Z,26.16
2019-05-23T12:12:37.004Z,26.68
2019-05-23T12:13:35.998Z,27.03
2019-05-23T12:14:36.002Z,27.35
2019-05-23T12:15:36.139Z,27.58
2019-05-23T12:16:35.964Z,27.47
2019-05-23T12:17:36.002Z,27.73
2019-05-23T12:18:35.980Z,28.08
2019-05-23T12:19:36.056Z,28.47
2019-05-23T12:20:35.926Z,28.70
2019-05-23T12:21:35.908Z,29.19
2019-05-23T12:22:35.959Z,29.51
2019-05-23T12:23:35.957Z,29.73
2019-05-23T12:24:36.072Z,28.26
2019-05-23T12:25:35.868Z,27.71
2019-05-23T12:26:35.973Z,27.25
2019-05-23T12:27:35.848Z,27.25
2019-05-23T12:28:35.897Z,27.39
2019-05-23T12:29:35.859Z,27.25
2019-05-23T12:30:35.813Z,27.26
2019-05-23T12:31:35.897Z,27.10
2019-05-23T12:32:35.790Z,26.99
2019-05-23T12:33:35.837Z,26.48
2019-05-23T12:34:35.773Z,26.43
2019-05-23T12:35:35.777Z,26.71
2019-05-23T12:36:35.755Z,26.93
2019-05-23T12:37:35.745Z,27.22
2019-05-23T12:38:35.774Z,27.68
2019-05-23T12:39:35.729Z,27.83
2019-05-23T12:40:35.872Z,28.15
2019-05-23T12:41:35.746Z,28.72
2019-05-23T12:42:35.687Z,29.35
2019-05-23T12:43:35.732Z,29.91
2019-05-23T12:44:35.673Z,30.37
2019-05-23T12:45:35.673Z,30.23
2019-05-23T12:46:35.675Z,29.95
2019-05-23T12:47:35.719Z,28.89
2019-05-23T12:48:35.640Z,28.05
2019-05-23T12:49:35.622Z,26.97
2019-05-23T12:50:35.628Z,26.71
2019-05-23T12:51:35.598Z,26.29
2019-05-23T12:52:35.643Z,26.26
2019-05-23T12:53:35.585Z,26.55
2019-05-23T12:54:35.574Z,26.80
2019-05-23T12:55:36.162Z,26.83
2019-05-23T12:56:35.624Z,27.02
2019-05-23T12:57:35.553Z,27.29
2019-05-23T12:58:35.547Z,27.27
2019-05-23T12:59:35.589Z,27.30
2019-05-23T13:00:35.699Z,27.37
2019-05-23T13:01:35.537Z,27.29
2019-05-23T13:02:35.502Z,27.33
2019-05-23T13:03:35.502Z,27.33